createdAt,value
2022-07-25T00:01:22.574Z,27.20
2022-07-25T00:03:52.198Z,27.20
2022-07-25T00:06:20.420Z,27.20
2022-07-25T00:08:48.531Z,27.20
2022-07-25T00:11:18.060Z,27.20
2022-07-25T00:13:46.198Z,27.10
2022-07-25T00:16:14.272Z,27.10
2022-07-25T00:18:42.416Z,27.10
2022-07-25T00:21:10.531Z,27.10
2022-07-25T00:23:38.592Z,27.10
2022-07-25T00:26:06.953Z,27.00
2022-07-25T00:28:36.425Z,27.00
2022-07-25T00:31:04.782Z,27.00
2022-07-25T00:33:33.274Z,27.00
2022-07-25T00:36:01.395Z,27.00
2022-07-25T00:38:29.631Z,26.90
2022-07-25T00:40:57.737Z,26.90
2022-07-25T00:43:25.880Z,26.90
2022-07-25T00:45:55.399Z,26.90
2022-07-25T00:48:24.566Z,26.90
2022-07-25T00:50:52.697Z,26.80
2022-07-25T00:53:20.869Z,26.80
2022-07-25T00:55:49.473Z,26.70
2022-07-25T00:58:18.925Z,26.70
2022-07-25T01:00:47.361Z,26.60
2022-07-25T01:03:17.363Z,26.60
2022-07-25T01:05:48.006Z,26.60
2022-07-25T01:08:20.418Z,26.60
2022-07-25T01:10:49.999Z,26.70
2022-07-25T01:13:18.438Z,26.60
2022-07-25T01:15:49.163Z,26.60
2022-07-25T01:18:18.898Z,26.60
2022-07-25T01:20:48.633Z,26.60
2022-07-25T01:23:16.771Z,26.60
2022-07-25T01:25:45.046Z,26.60
2022-07-25T01:28:13.493Z,26.50
2022-07-25T01:30:41.884Z,26.60
2022-07-25T01:33:09.989Z,26.60
2022-07-25T01:35:43.288Z,26.50
2022-07-25T01:38:13.584Z,26.50
2022-07-25T01:40:42.441Z,26.60
2022-07-25T01:43:11.221Z,26.50
2022-07-25T01:45:39.638Z,26.60
2022-07-25T01:48:08.376Z,26.50
2022-07-25T01:50:36.551Z,26.50
2022-07-25T01:53:04.697Z,26.50
2022-07-25T01:55:34.253Z,26.50
2022-07-25T01:58:02.406Z,26.50
2022-07-25T02:00:30.832Z,26.50
2022-07-25T02:03:16.501Z,26.50
2022-07-25T02:05:44.655Z,26.40
2022-07-25T02:08:12.783Z,26.40
2022-07-25T02:10:42.245Z,26.40
2022-07-25T02:13:10.379Z,26.30
2022-07-25T02:15:38.501Z,26.40
2022-07-25T02:18:06.760Z,26.30
2022-07-25T02:20:34.885Z,26.30
2022-07-25T02:23:03.800Z,26.20
2022-07-25T02:25:32.011Z,26.10
2022-07-25T02:28:01.539Z,26.10
2022-07-25T02:30:30.008Z,26.10
2022-07-25T02:32:58.172Z,26.10
2022-07-25T02:35:26.319Z,26.10
2022-07-25T02:37:54.462Z,26.10
2022-07-25T02:40:22.620Z,26.10
2022-07-25T02:42:50.734Z,26.10
2022-07-25T02:45:20.453Z,26.10
2022-07-25T02:47:48.569Z,26.10
2022-07-25T02:50:16.800Z,26.10
2022-07-25T02:52:45.472Z,26.10
2022-07-25T02:55:13.687Z,26.10
2022-07-25T02:57:41.871Z,26.10
2022-07-25T03:00:10.961Z,26.00
2022-07-25T03:02:40.526Z,26.00
2022-07-25T03:05:10.232Z,26.00
2022-07-25T03:07:38.946Z,25.90
2022-07-25T03:10:11.221Z,25.90
2022-07-25T03:12:39.991Z,25.90
2022-07-25T03:15:09.215Z,25.90
2022-07-25T03:17:37.506Z,25.90
2022-07-25T03:20:09.018Z,25.90
2022-07-25T03:22:37.430Z,25.90
2022-07-25T03:25:06.503Z,25.90
2022-07-25T03:27:43.605Z,25.90
2022-07-25T03:30:12.844Z,25.90
2022-07-25T03:32:41.808Z,25.80
2022-07-25T03:35:11.560Z,25.80
2022-07-25T03:37:39.657Z,25.80
2022-07-25T03:40:09.243Z,25.80
2022-07-25T03:42:37.314Z,25.70
2022-07-25T03:45:06.171Z,25.70
2022-07-25T03:47:34.290Z,25.70
2022-07-25T03:50:02.492Z,25.70
2022-07-25T03:52:31.998Z,25.70
2022-07-25T03:55:00.105Z,25.70
2022-07-25T03:57:28.259Z,25.70
2022-07-25T03:59:56.385Z,25.70
2022-07-25T04:02:24.592Z,25.70
2022-07-25T04:04:52.736Z,25.60
2022-07-25T04:07:20.817Z,25.60
2022-07-25T04:09:50.303Z,25.60
2022-07-25T04:12:18.485Z,25.50
2022-07-25T04:14:46.766Z,25.50
2022-07-25T04:17:14.977Z,25.50
2022-07-25T04:19:43.337Z,25.50
2022-07-25T04:22:12.250Z,25.50
2022-07-25T04:24:40.493Z,25.50
2022-07-25T04:27:10.029Z,25.60
2022-07-25T04:29:38.210Z,25.60
2022-07-25T04:32:07.516Z,25.50
2022-07-25T04:34:35.716Z,25.50
2022-07-25T04:37:03.898Z,25.40
2022-07-25T04:39:32.038Z,25.30
2022-07-25T04:42:00.275Z,25.10
2022-07-25T04:44:29.872Z,25.00
2022-07-25T04:46:57.993Z,24.90
2022-07-25T04:49:26.113Z,25.00
2022-07-25T04:51:54.231Z,25.00
2022-07-25T04:54:22.249Z,25.00
2022-07-25T04:56:50.373Z,25.10
2022-07-25T04:59:18.428Z,25.10
2022-07-25T05:01:47.909Z,25.20
2022-07-25T05:04:16.020Z,25.30
2022-07-25T05:06:44.106Z,25.30
2022-07-25T05:09:12.414Z,25.30
2022-07-25T05:11:46.761Z,25.40
2022-07-25T05:14:16.124Z,25.30
2022-07-25T05:16:44.353Z,25.30
2022-07-25T05:19:14.089Z,25.30
2022-07-25T05:21:42.415Z,25.40
2022-07-25T05:24:10.771Z,25.50
2022-07-25T05:26:39.050Z,25.50
2022-07-25T05:29:07.340Z,25.60
2022-07-25T05:31:35.593Z,25.70
2022-07-25T05:34:07.121Z,25.80
2022-07-25T05:36:37.091Z,25.90
2022-07-25T05:39:05.580Z,26.00
2022-07-25T05:41:33.944Z,26.00
2022-07-25T05:44:02.301Z,26.10
2022-07-25T05:46:30.486Z,26.10
2022-07-25T05:48:59.412Z,26.10
2022-07-25T05:51:27.926Z,26.10
2022-07-25T05:53:57.605Z,26.10
2022-07-25T05:56:25.820Z,26.10
2022-07-25T05:58:54.404Z,26.10
2022-07-25T06:01:22.725Z,26.00
2022-07-25T06:03:50.887Z,26.10
2022-07-25T06:06:19.173Z,26.10
2022-07-25T06:08:47.892Z,26.10
2022-07-25T06:11:17.595Z,26.20
2022-07-25T06:13:45.945Z,26.30
2022-07-25T06:16:14.851Z,26.20
2022-07-25T06:18:43.332Z,26.20
2022-07-25T06:21:11.542Z,26.10
2022-07-25T06:23:39.806Z,26.20
2022-07-25T06:26:10.629Z,26.20
2022-07-25T06:28:40.323Z,26.30
2022-07-25T06:31:08.797Z,26.40
2022-07-25T06:33:37.215Z,26.40
2022-07-25T06:36:06.742Z,26.50
2022-07-25T06:38:34.948Z,26.60
2022-07-25T06:41:04.776Z,26.60
2022-07-25T06:43:33.497Z,26.70
2022-07-25T06:46:03.234Z,26.70
2022-07-25T06:48:31.542Z,26.70
2022-07-25T06:50:59.744Z,26.80
2022-07-25T06:53:28.354Z,26.80
2022-07-25T06:55:56.760Z,27.00
2022-07-25T06:58:25.909Z,27.00
2022-07-25T07:00:54.435Z,27.20
2022-07-25T07:03:24.581Z,27.40
2022-07-25T07:05:52.903Z,27.50
2022-07-25T07:08:21.339Z,27.70
2022-07-25T07:10:49.833Z,27.80
2022-07-25T07:13:23.726Z,27.90
2022-07-25T07:15:53.131Z,28.10
2022-07-25T07:18:23.882Z,28.20
2022-07-25T07:20:53.738Z,28.30
2022-07-25T07:23:22.292Z,28.30
2022-07-25T07:25:53.394Z,28.30
2022-07-25T07:28:21.945Z,28.40
2022-07-25T07:33:41.862Z,28.50
2022-07-25T07:36:11.836Z,28.60
2022-07-25T07:38:40.581Z,28.60
2022-07-25T07:41:09.791Z,28.60
2022-07-25T07:43:38.699Z,28.60
2022-07-25T07:46:07.250Z,28.60
2022-07-25T07:48:36.293Z,28.60
2022-07-25T07:51:06.664Z,28.60
2022-07-25T07:53:52.526Z,28.60
2022-07-25T07:56:20.867Z,28.70
2022-07-25T07:58:49.166Z,28.70
2022-07-25T08:01:18.383Z,28.70
2022-07-25T08:03:47.135Z,28.70
2022-07-25T08:06:17.405Z,28.70
2022-07-25T08:08:46.212Z,28.70
2022-07-25T08:11:15.071Z,28.70
2022-07-25T08:13:43.805Z,28.80
2022-07-25T08:16:13.935Z,28.80
2022-07-25T08:18:43.494Z,28.80
2022-07-25T08:21:12.442Z,28.80
2022-07-25T08:23:42.214Z,28.80
2022-07-25T08:26:10.597Z,28.80
2022-07-25T08:28:39.156Z,28.90
2022-07-25T08:31:08.515Z,28.90
2022-07-25T08:33:36.867Z,28.90
2022-07-25T08:36:05.238Z,28.90
2022-07-25T08:38:35.459Z,28.90
2022-07-25T08:41:05.308Z,28.90
2022-07-25T08:43:35.030Z,29.00
2022-07-25T08:46:03.793Z,29.00
2022-07-25T08:48:32.311Z,29.00
2022-07-25T08:51:01.202Z,29.10
2022-07-25T08:53:33.080Z,29.10
2022-07-25T08:56:06.709Z,29.20
2022-07-25T08:58:40.587Z,29.20
2022-07-25T09:01:09.219Z,29.20
2022-07-25T09:03:38.219Z,29.30
2022-07-25T09:06:16.567Z,29.40
2022-07-25T09:08:52.874Z,29.30
2022-07-25T09:11:28.854Z,29.40
2022-07-25T09:14:04.899Z,29.30
2022-07-25T09:16:35.437Z,29.30
2022-07-25T09:19:10.887Z,29.40
2022-07-25T09:21:39.908Z,29.40
2022-07-25T09:24:17.330Z,29.40
2022-07-25T09:26:51.171Z,29.40
2022-07-25T09:29:22.984Z,29.40
2022-07-25T09:31:52.633Z,29.40
2022-07-25T09:34:36.487Z,29.50
2022-07-25T09:37:05.951Z,29.50
2022-07-25T09:39:35.966Z,29.50
2022-07-25T09:42:04.739Z,29.50
2022-07-25T09:44:35.027Z,29.50
2022-07-25T09:47:11.976Z,29.60
2022-07-25T09:49:44.280Z,29.60
2022-07-25T09:52:13.611Z,29.60
2022-07-25T09:54:42.892Z,29.80
2022-07-25T09:57:11.591Z,29.90
2022-07-25T09:59:42.679Z,30.10
2022-07-25T10:02:15.781Z,30.20
2022-07-25T10:04:48.429Z,30.40
2022-07-25T10:07:20.787Z,30.50
2022-07-25T10:09:52.139Z,30.60
2022-07-25T10:12:22.778Z,30.70
2022-07-25T10:15:11.168Z,30.80
2022-07-25T10:17:42.279Z,30.40
2022-07-25T10:20:11.639Z,31.00
2022-07-25T10:22:58.213Z,31.10
2022-07-25T10:25:27.568Z,31.10
2022-07-25T10:28:01.342Z,31.10
2022-07-25T10:30:36.495Z,31.30
2022-07-25T10:33:06.562Z,31.30
2022-07-25T10:35:34.848Z,31.40
2022-07-25T10:38:06.297Z,31.40
2022-07-25T10:40:38.197Z,31.50
2022-07-25T10:43:19.470Z,31.40
2022-07-25T10:45:53.875Z,31.40
2022-07-25T10:48:24.951Z,31.40
2022-07-25T10:50:59.453Z,31.50
2022-07-25T10:53:38.498Z,31.50
2022-07-25T10:56:11.973Z,31.60
2022-07-25T10:58:51.397Z,31.60
2022-07-25T11:01:26.055Z,31.60
2022-07-25T11:03:55.707Z,31.60
2022-07-25T11:06:35.554Z,31.60
2022-07-25T11:09:05.019Z,31.70
2022-07-25T11:11:37.941Z,31.70
2022-07-25T11:14:07.367Z,31.70
2022-07-25T11:16:37.088Z,31.70
2022-07-25T11:19:05.697Z,31.80
2022-07-25T11:21:44.601Z,31.80
2022-07-25T11:24:12.979Z,31.90
2022-07-25T11:26:52.243Z,31.80
2022-07-25T11:29:21.961Z,31.90
2022-07-25T11:31:56.594Z,32.00
2022-07-25T11:34:27.449Z,31.90
2022-07-25T11:36:57.462Z,31.90
2022-07-25T11:39:27.371Z,31.90
2022-07-25T11:42:03.388Z,31.90
2022-07-25T11:44:33.249Z,31.90
2022-07-25T11:47:03.253Z,31.90
2022-07-25T11:49:31.773Z,32.00
2022-07-25T11:52:00.061Z,32.10
2022-07-25T11:54:28.384Z,32.10
2022-07-25T11:56:56.740Z,32.10
2022-07-25T11:59:25.377Z,32.20
2022-07-25T12:01:53.580Z,32.20
2022-07-25T12:04:23.837Z,32.30
2022-07-25T12:06:52.164Z,32.30
2022-07-25T12:09:21.905Z,32.20
2022-07-25T12:11:50.792Z,32.20
2022-07-25T12:14:19.081Z,32.20
2022-07-25T12:16:47.338Z,32.20
2022-07-25T12:19:23.674Z,32.30
2022-07-25T12:21:52.035Z,32.40
2022-07-25T12:24:20.360Z,32.40
2022-07-25T12:26:48.503Z,32.30
2022-07-25T12:29:16.800Z,32.40
2022-07-25T12:31:45.205Z,32.40
2022-07-25T12:34:14.240Z,32.50
2022-07-25T12:36:45.323Z,32.60
2022-07-25T12:39:14.171Z,32.60
2022-07-25T12:41:43.157Z,32.60
2022-07-25T12:44:11.885Z,32.60
2022-07-25T12:46:47.193Z,32.50
2022-07-25T12:49:17.515Z,32.50
2022-07-25T12:51:47.330Z,32.50
2022-07-25T12:54:22.128Z,32.60
2022-07-25T12:56:51.760Z,32.50
2022-07-25T12:59:19.972Z,32.40
2022-07-25T13:01:48.430Z,32.50
2022-07-25T13:04:16.858Z,32.50
2022-07-25T13:06:46.550Z,32.60
2022-07-25T13:09:14.888Z,32.60
2022-07-25T13:11:43.649Z,32.70
2022-07-25T13:14:12.894Z,32.70
2022-07-25T13:16:41.269Z,32.70
2022-07-25T13:19:10.497Z,32.80
2022-07-25T13:21:39.180Z,32.80
2022-07-25T13:24:09.830Z,32.80
2022-07-25T13:26:39.736Z,32.80
2022-07-25T13:29:11.737Z,32.80
2022-07-25T13:31:42.299Z,32.70
2022-07-25T13:34:11.520Z,32.70
2022-07-25T13:36:40.450Z,32.70
2022-07-25T13:39:10.551Z,32.80
2022-07-25T13:41:39.148Z,32.80
2022-07-25T13:44:07.456Z,32.80
2022-07-25T13:46:36.375Z,32.70
2022-07-25T13:49:05.183Z,32.70
2022-07-25T13:51:33.763Z,32.80
2022-07-25T13:54:02.033Z,32.80
2022-07-25T13:56:33.252Z,32.90
2022-07-25T13:59:03.473Z,32.80
2022-07-25T14:01:32.358Z,32.80
2022-07-25T14:04:01.123Z,32.80
2022-07-25T14:06:29.883Z,32.80
2022-07-25T14:08:58.190Z,32.80
2022-07-25T14:11:30.508Z,32.80
2022-07-25T14:14:01.200Z,32.80
2022-07-25T14:16:29.717Z,32.80
2022-07-25T14:18:58.636Z,32.70
2022-07-25T14:21:27.457Z,32.70
2022-07-25T14:23:55.781Z,32.70
2022-07-25T14:26:24.143Z,32.70
2022-07-25T14:28:52.883Z,32.90
2022-07-25T14:31:22.863Z,32.70
2022-07-25T14:33:51.349Z,32.70
2022-07-25T14:36:20.202Z,32.60
2022-07-25T14:38:48.747Z,32.70
2022-07-25T14:41:17.311Z,32.70
2022-07-25T14:43:45.916Z,32.60
2022-07-25T14:46:14.408Z,32.60
2022-07-25T14:48:44.292Z,32.60
2022-07-25T14:51:12.872Z,32.60
2022-07-25T14:53:41.204Z,32.60
2022-07-25T14:56:09.768Z,32.70
2022-07-25T14:58:38.211Z,32.70
2022-07-25T15:01:06.740Z,32.70
2022-07-25T15:03:35.127Z,32.70
2022-07-25T15:06:07.255Z,32.70
2022-07-25T15:08:35.673Z,32.70
2022-07-25T15:11:03.999Z,32.70
2022-07-25T15:13:32.826Z,32.70
2022-07-25T15:16:02.255Z,32.70
2022-07-25T15:18:30.821Z,32.80
2022-07-25T15:20:59.123Z,32.80
2022-07-25T15:23:30.587Z,32.90
2022-07-25T15:26:02.276Z,32.90
2022-07-25T15:28:31.779Z,33.00
2022-07-25T15:31:00.318Z,33.00
2022-07-25T15:33:28.815Z,33.00
2022-07-25T15:35:57.192Z,33.00
2022-07-25T15:38:25.645Z,32.90
2022-07-25T15:40:55.366Z,32.90
2022-07-25T15:43:23.598Z,32.90
2022-07-25T15:45:52.277Z,32.90
2022-07-25T15:48:21.054Z,32.80
2022-07-25T15:50:51.976Z,32.80
2022-07-25T15:53:20.526Z,32.80
2022-07-25T15:55:48.874Z,32.70
2022-07-25T15:58:18.777Z,32.60
2022-07-25T16:00:47.229Z,32.50
2022-07-25T16:03:16.270Z,32.50
2022-07-25T16:05:45.590Z,32.50
2022-07-25T16:08:13.797Z,32.40
2022-07-25T16:10:42.080Z,32.40
2022-07-25T16:13:10.303Z,32.40
2022-07-25T16:15:40.615Z,32.30
2022-07-25T16:18:09.184Z,32.20
2022-07-25T16:20:37.482Z,32.30
2022-07-25T16:23:05.724Z,32.20
2022-07-25T16:25:34.038Z,32.10
2022-07-25T16:28:02.421Z,32.10
2022-07-25T16:30:30.745Z,32.10
2022-07-25T16:33:00.443Z,32.10
2022-07-25T16:35:28.773Z,31.80
2022-07-25T16:37:56.997Z,32.00
2022-07-25T16:40:30.261Z,31.90
2022-07-25T16:42:59.799Z,31.90
2022-07-25T16:45:28.923Z,31.90
2022-07-25T16:47:57.048Z,31.90
2022-07-25T16:50:26.919Z,31.90
2022-07-25T16:52:55.413Z,31.80
2022-07-25T16:55:24.462Z,31.80
2022-07-25T16:57:53.139Z,31.80
2022-07-25T17:00:21.695Z,31.80
2022-07-25T17:02:50.333Z,31.80
2022-07-25T17:05:20.596Z,31.80
2022-07-25T17:07:57.129Z,31.80
2022-07-25T17:10:28.100Z,31.70
2022-07-25T17:12:57.115Z,31.70
2022-07-25T17:15:25.747Z,31.70
2022-07-25T17:17:54.340Z,31.70
2022-07-25T17:20:22.578Z,31.80
2022-07-25T17:22:52.414Z,31.70
2022-07-25T17:25:20.670Z,31.70
2022-07-25T17:27:48.963Z,31.70
2022-07-25T17:30:17.387Z,31.70
2022-07-25T17:32:45.592Z,31.70
2022-07-25T17:35:14.336Z,31.70
2022-07-25T17:37:43.158Z,31.70
2022-07-25T17:40:13.843Z,31.70
2022-07-25T17:42:45.410Z,31.60
2022-07-25T17:45:14.426Z,31.60
2022-07-25T17:47:43.307Z,31.60
2022-07-25T17:50:12.782Z,31.60
2022-07-25T17:52:41.654Z,31.60
2022-07-25T17:55:13.726Z,31.60
2022-07-25T17:57:46.690Z,31.40
2022-07-25T18:00:16.080Z,31.40
2022-07-25T18:02:45.032Z,31.40
2022-07-25T18:05:13.627Z,31.40
2022-07-25T18:07:48.293Z,31.40
2022-07-25T18:10:21.204Z,31.40
2022-07-25T18:12:50.409Z,31.40
2022-07-25T18:15:19.066Z,31.30
2022-07-25T18:17:48.699Z,31.30
2022-07-25T18:20:18.416Z,31.20
2022-07-25T18:22:47.205Z,31.20
2022-07-25T18:25:17.489Z,31.20
2022-07-25T18:27:48.661Z,31.10
2022-07-25T18:30:17.591Z,31.10
2022-07-25T18:32:46.621Z,31.00
2022-07-25T18:35:15.012Z,31.00
2022-07-25T18:37:44.303Z,31.00
2022-07-25T18:40:13.568Z,30.90
2022-07-25T18:42:43.589Z,30.90
2022-07-25T18:45:12.801Z,30.80
2022-07-25T18:47:41.276Z,30.80
2022-07-25T18:50:10.581Z,30.70
2022-07-25T18:52:38.872Z,30.70
2022-07-25T18:55:10.036Z,30.60
2022-07-25T18:57:39.418Z,30.60
2022-07-25T19:00:12.024Z,30.70
2022-07-25T19:02:40.822Z,30.50
2022-07-25T19:05:10.883Z,30.50
2022-07-25T19:07:40.672Z,30.30
2022-07-25T19:10:10.074Z,30.30
2022-07-25T19:12:39.004Z,30.30
2022-07-25T19:15:09.960Z,30.30
2022-07-25T19:17:38.812Z,30.30
2022-07-25T19:20:08.912Z,30.20
2022-07-25T19:22:38.702Z,30.20
2022-07-25T19:25:08.650Z,30.20
2022-07-25T19:27:38.581Z,30.20
2022-07-25T19:30:16.775Z,30.20
2022-07-25T19:32:46.273Z,30.10
2022-07-25T19:35:16.483Z,30.10
2022-07-25T19:37:45.150Z,30.10
2022-07-25T19:40:15.100Z,30.00
2022-07-25T19:42:45.376Z,30.00
2022-07-25T19:45:16.825Z,30.00
2022-07-25T19:47:46.409Z,30.00
2022-07-25T19:50:15.640Z,29.90
2022-07-25T19:52:44.403Z,29.80
2022-07-25T19:55:12.952Z,29.80
2022-07-25T19:57:42.765Z,29.70
2022-07-25T20:00:12.976Z,29.70
2022-07-25T20:02:43.829Z,29.70
2022-07-25T20:05:13.002Z,29.70
2022-07-25T20:07:41.440Z,29.60
2022-07-25T20:10:11.466Z,29.60
2022-07-25T20:12:41.810Z,29.60
2022-07-25T20:15:10.979Z,29.50
2022-07-25T20:17:39.740Z,29.50
2022-07-25T20:20:11.231Z,29.50
2022-07-25T20:22:41.993Z,29.50
2022-07-25T20:25:14.000Z,29.50
2022-07-25T20:27:43.442Z,29.50
2022-07-25T20:30:13.481Z,29.50
2022-07-25T20:32:41.964Z,29.40
2022-07-25T20:35:12.103Z,29.40
2022-07-25T20:37:42.274Z,29.40
2022-07-25T20:40:12.838Z,29.40
2022-07-25T20:42:42.661Z,29.40
2022-07-25T20:45:12.018Z,29.30
2022-07-25T20:47:40.268Z,29.30
2022-07-25T20:50:10.147Z,29.30
2022-07-25T20:52:40.594Z,29.20
2022-07-25T20:55:09.820Z,29.20
2022-07-25T20:57:38.415Z,29.20
2022-07-25T21:00:08.219Z,29.20
2022-07-25T21:02:41.361Z,29.10
2022-07-25T21:05:10.866Z,29.10
2022-07-25T21:07:41.099Z,29.10
2022-07-25T21:10:11.196Z,29.00
2022-07-25T21:12:40.621Z,29.00
2022-07-25T21:15:10.643Z,29.00
2022-07-25T21:17:39.323Z,29.00
2022-07-25T21:20:09.885Z,28.90
2022-07-25T21:22:38.166Z,28.90
2022-07-25T21:25:09.049Z,28.80
2022-07-25T21:27:37.989Z,28.90
2022-07-25T21:30:08.754Z,28.90
2022-07-25T21:32:39.535Z,28.80
2022-07-25T21:35:09.259Z,28.80
2022-07-25T21:37:38.077Z,28.80
2022-07-25T21:40:09.451Z,28.70
2022-07-25T21:42:37.996Z,28.70
2022-07-25T21:45:07.341Z,28.70
2022-07-25T21:47:36.080Z,28.70
2022-07-25T21:50:24.486Z,28.60
2022-07-25T21:52:53.967Z,28.60
2022-07-25T21:55:23.820Z,28.60
2022-07-25T21:57:52.772Z,28.60
2022-07-25T22:00:21.508Z,28.60
2022-07-25T22:02:50.170Z,28.50
2022-07-25T22:05:19.447Z,28.50
2022-07-25T22:07:48.923Z,28.50
2022-07-25T22:10:18.658Z,28.50
2022-07-25T22:12:49.588Z,28.50
2022-07-25T22:15:18.164Z,28.50
2022-07-25T22:17:49.445Z,28.40
2022-07-25T22:20:18.969Z,28.40
2022-07-25T22:22:47.830Z,28.40
2022-07-25T22:25:16.818Z,28.40
2022-07-25T22:27:45.231Z,28.40
2022-07-25T22:30:19.282Z,28.30
2022-07-25T22:32:48.430Z,28.40
2022-07-25T22:35:16.999Z,28.30
2022-07-25T22:37:45.487Z,28.30
2022-07-25T22:40:14.824Z,28.30
2022-07-25T22:42:43.097Z,28.30
2022-07-25T22:45:12.271Z,28.20
2022-07-25T22:47:42.020Z,28.20
2022-07-25T22:50:11.350Z,28.20
2022-07-25T22:52:39.742Z,28.20
2022-07-25T22:55:08.765Z,28.20
2022-07-25T22:57:37.834Z,28.10
2022-07-25T23:00:09.910Z,28.10
2022-07-25T23:02:38.258Z,28.10
2022-07-25T23:05:09.326Z,28.00
2022-07-25T23:07:37.613Z,28.00
2022-07-25T23:10:07.034Z,28.00
2022-07-25T23:12:35.536Z,28.00
2022-07-25T23:15:04.536Z,28.00
2022-07-25T23:17:32.887Z,28.00
2022-07-25T23:20:00.993Z,28.00
2022-07-25T23:22:30.614Z,28.00
2022-07-25T23:24:59.654Z,28.00
2022-07-25T23:27:28.408Z,27.90
2022-07-25T23:30:01.544Z,27.90
2022-07-25T23:32:29.799Z,27.90
2022-07-25T23:34:57.982Z,27.90
2022-07-25T23:37:26.133Z,27.80
2022-07-25T23:39:56.270Z,27.80
2022-07-25T23:42:24.554Z,27.80
2022-07-25T23:44:52.816Z,27.70
2022-07-25T23:47:36.748Z,27.70
2022-07-25T23:50:08.425Z,27.70
2022-07-25T23:52:36.563Z,27.70
2022-07-25T23:55:06.889Z,27.70
2022-07-25T23:57:35.137Z,27.80
